sensor_id;sensor_type;location;lat;lon;timestamp;pressure;altitude;pressure_sealevel;temperature;humidity
33265;BME280;31404;53.974;-1.086;2023-05-08T00:00:39;101745.60;;;16.32;73.01
33265;BME280;31404;53.974;-1.086;2023-05-08T00:05:41;101738.03;;;15.27;79.93
33265;BME280;31404;53.974;-1.086;2023-05-08T00:10:37;101724.91;;;15.83;76.98
33265;BME280;31404;53.974;-1.086;2023-05-08T00:15:38;101731.33;;;16.66;74.71
33265;BME280;31404;53.974;-1.086;2023-05-08T00:20:38;101725.32;;;17.43;71.59
33265;BME280;31404;53.974;-1.086;2023-05-08T00:25:39;101726.49;;;15.20;78.92
33265;BME280;31404;53.974;-1.086;2023-05-08T00:30:39;101724.15;;;15.27;77.84
33265;BME280;31404;53.974;-1.086;2023-05-08T00:35:40;101727.40;;;15.64;76.67
33265;BME280;31404;53.974;-1.086;2023-05-08T00:40:40;101723.09;;;17.18;72.16
33265;BME280;31404;53.974;-1.086;2023-05-08T00:45:40;101719.88;;;16.80;72.81
33265;BME280;31404;53.974;-1.086;2023-05-08T00:50:40;101717.45;;;17.58;70.41
33265;BME280;31404;53.974;-1.086;2023-05-08T00:55:39;101717.76;;;16.89;71.61
33265;BME280;31404;53.974;-1.086;2023-05-08T01:00:41;101716.41;;;16.68;72.76
33265;BME280;31404;53.974;-1.086;2023-05-08T01:05:40;101707.32;;;17.85;69.45
33265;BME280;31404;53.974;-1.086;2023-05-08T01:15:44;101695.67;;;17.89;68.72
33265;BME280;31404;53.974;-1.086;2023-05-08T01:45:40;101696.14;;;15.91;77.03
33265;BME280;31404;53.974;-1.086;2023-05-08T01:50:44;101704.71;;;14.98;81.21
33265;BME280;31404;53.974;-1.086;2023-05-08T01:55:41;101708.46;;;16.38;76.80
33265;BME280;31404;53.974;-1.086;2023-05-08T02:00:42;101699.71;;;16.47;76.19
33265;BME280;31404;53.974;-1.086;2023-05-08T02:05:40;101698.64;;;16.48;75.72
33265;BME280;31404;53.974;-1.086;2023-05-08T02:10:40;101686.72;;;16.88;73.40
33265;BME280;31404;53.974;-1.086;2023-05-08T02:15:41;101680.44;;;16.58;75.74
33265;BME280;31404;53.974;-1.086;2023-05-08T02:20:39;101676.92;;;16.06;76.03
33265;BME280;31404;53.974;-1.086;2023-05-08T02:25:39;101673.63;;;15.09;79.34
33265;BME280;31404;53.974;-1.086;2023-05-08T02:30:41;101663.56;;;16.52;74.75
33265;BME280;31404;53.974;-1.086;2023-05-08T02:35:40;101652.67;;;16.79;74.17
33265;BME280;31404;53.974;-1.086;2023-05-08T02:40:47;101651.51;;;15.86;76.97
33265;BME280;31404;53.974;-1.086;2023-05-08T03:10:42;101623.23;;;15.96;77.27
33265;BME280;31404;53.974;-1.086;2023-05-08T03:15:43;101630.31;;;14.95;80.84
33265;BME280;31404;53.974;-1.086;2023-05-08T03:20:44;101633.15;;;14.35;82.90
33265;BME280;31404;53.974;-1.086;2023-05-08T03:25:41;101636.76;;;12.64;92.85
33265;BME280;31404;53.974;-1.086;2023-05-08T03:30:40;101629.22;;;12.89;92.40
33265;BME280;31404;53.974;-1.086;2023-05-08T03:35:40;101626.09;;;11.15;100.00
33265;BME280;31404;53.974;-1.086;2023-05-08T03:40:40;101615.60;;;12.25;98.40
33265;BME280;31404;53.974;-1.086;2023-05-08T03:45:37;101617.09;;;11.86;98.23
33265;BME280;31404;53.974;-1.086;2023-05-08T03:50:41;101619.81;;;10.99;100.00
33265;BME280;31404;53.974;-1.086;2023-05-08T03:55:41;101620.04;;;10.65;100.00
33265;BME280;31404;53.974;-1.086;2023-05-08T04:10:44;101604.29;;;12.17;98.77
33265;BME280;31404;53.974;-1.086;2023-05-08T04:15:47;101599.34;;;13.10;92.28
33265;BME280;31404;53.974;-1.086;2023-05-08T04:20:41;101605.40;;;11.28;100.00
33265;BME280;31404;53.974;-1.086;2023-05-08T04:25:40;101605.68;;;11.40;100.00
33265;BME280;31404;53.974;-1.086;2023-05-08T04:30:39;101604.96;;;11.88;99.20
33265;BME280;31404;53.974;-1.086;2023-05-08T04:35:40;101611.38;;;12.64;93.52
33265;BME280;31404;53.974;-1.086;2023-05-08T04:40:40;101609.03;;;11.75;98.96
33265;BME280;31404;53.974;-1.086;2023-05-08T04:45:39;101603.63;;;12.39;94.80
33265;BME280;31404;53.974;-1.086;2023-05-08T04:50:38;101609.56;;;10.86;100.00
33265;BME280;31404;53.974;-1.086;2023-05-08T04:55:42;101616.58;;;10.06;100.00
33265;BME280;31404;53.974;-1.086;2023-05-08T05:00:37;101605.86;;;10.73;100.00
33265;BME280;31404;53.974;-1.086;2023-05-08T05:05:40;101610.77;;;10.69;100.00
33265;BME280;31404;53.974;-1.086;2023-05-08T05:10:39;101608.95;;;12.23;95.44
33265;BME280;31404;53.974;-1.086;2023-05-08T05:15:41;101614.67;;;11.07;100.00
33265;BME280;31404;53.974;-1.086;2023-05-08T05:20:40;101616.96;;;11.55;97.82
33265;BME280;31404;53.974;-1.086;2023-05-08T05:25:43;101610.79;;;11.98;95.16
33265;BME280;31404;53.974;-1.086;2023-05-08T05:30:40;101609.93;;;12.43;93.05
33265;BME280;31404;53.974;-1.086;2023-05-08T05:35:40;101609.67;;;12.52;90.42
33265;BME280;31404;53.974;-1.086;2023-05-08T05:40:40;101608.22;;;12.81;88.95
33265;BME280;31404;53.974;-1.086;2023-05-08T05:45:42;101607.96;;;12.06;92.30
33265;BME280;31404;53.974;-1.086;2023-05-08T05:50:40;101608.74;;;11.83;92.34
33265;BME280;31404;53.974;-1.086;2023-05-08T05:55:39;101605.63;;;11.04;96.47
33265;BME280;31404;53.974;-1.086;2023-05-08T06:00:38;101609.60;;;11.60;97.40
33265;BME280;31404;53.974;-1.086;2023-05-08T06:05:40;101603.05;;;12.08;91.87
33265;BME280;31404;53.974;-1.086;2023-05-08T06:10:40;101600.82;;;11.45;95.65
33265;BME280;31404;53.974;-1.086;2023-05-08T06:15:46;101599.96;;;12.34;91.64
33265;BME280;31404;53.974;-1.086;2023-05-08T06:20:39;101597.07;;;11.89;91.53
33265;BME280;31404;53.974;-1.086;2023-05-08T06:25:40;101596.12;;;11.14;95.73
33265;BME280;31404;53.974;-1.086;2023-05-08T06:30:40;101593.42;;;11.42;95.70
33265;BME280;31404;53.974;-1.086;2023-05-08T06:35:40;101588.53;;;11.58;95.56
33265;BME280;31404;53.974;-1.086;2023-05-08T06:40:41;101596.64;;;9.90;100.00
33265;BME280;31404;53.974;-1.086;2023-05-08T06:45:41;101586.63;;;10.83;100.00
33265;BME280;31404;53.974;-1.086;2023-05-08T06:50:38;101580.95;;;11.85;96.55
33265;BME280;31404;53.974;-1.086;2023-05-08T06:55:42;101582.22;;;10.92;99.33
33265;BME280;31404;53.974;-1.086;2023-05-08T07:00:41;101584.21;;;10.33;100.00
33265;BME280;31404;53.974;-1.086;2023-05-08T07:10:40;101573.65;;;10.48;100.00
33265;BME280;31404;53.974;-1.086;2023-05-08T07:15:40;101575.43;;;11.36;100.00
33265;BME280;31404;53.974;-1.086;2023-05-08T07:20:40;101580.21;;;11.65;96.30
33265;BME280;31404;53.974;-1.086;2023-05-08T07:25:40;101576.98;;;11.40;98.29
33265;BME280;31404;53.974;-1.086;2023-05-08T07:30:40;101571.30;;;11.61;98.63
33265;BME280;31404;53.974;-1.086;2023-05-08T07:35:41;101568.31;;;12.26;94.43
33265;BME280;31404;53.974;-1.086;2023-05-08T07:40:38;101573.61;;;12.12;95.75
33265;BME280;31404;53.974;-1.086;2023-05-08T07:45:38;101576.04;;;10.52;100.00
33265;BME280;31404;53.974;-1.086;2023-05-08T07:50:40;101581.59;;;11.15;100.00
33265;BME280;31404;53.974;-1.086;2023-05-08T08:00:39;101576.64;;;12.96;95.22
33265;BME280;31404;53.974;-1.086;2023-05-08T08:05:39;101582.78;;;11.75;100.00
33265;BME280;31404;53.974;-1.086;2023-05-08T08:10:39;101586.68;;;11.34;100.00
33265;BME280;31404;53.974;-1.086;2023-05-08T08:15:40;101582.82;;;12.13;100.00
33265;BME280;31404;53.974;-1.086;2023-05-08T08:20:39;101580.63;;;12.12;100.00
33265;BME280;31404;53.974;-1.086;2023-05-08T08:25:40;101581.50;;;11.84;100.00
33265;BME280;31404;53.974;-1.086;2023-05-08T08:30:39;101582.05;;;11.97;100.00
33265;BME280;31404;53.974;-1.086;2023-05-08T08:35:37;101582.06;;;11.98;100.00
33265;BME280;31404;53.974;-1.086;2023-05-08T08:40:39;101575.26;;;11.09;100.00
33265;BME280;31404;53.974;-1.086;2023-05-08T08:50:42;101572.88;;;10.93;100.00
33265;BME280;31404;53.974;-1.086;2023-05-08T08:55:38;101567.90;;;12.48;100.00
33265;BME280;31404;53.974;-1.086;2023-05-08T09:00:40;101571.91;;;11.38;100.00
33265;BME280;31404;53.974;-1.086;2023-05-08T09:05:40;101566.15;;;10.47;100.00
33265;BME280;31404;53.974;-1.086;2023-05-08T09:10:40;101569.29;;;11.22;100.00
33265;BME280;31404;53.974;-1.086;2023-05-08T09:15:40;101565.25;;;11.77;100.00
33265;BME280;31404;53.974;-1.086;2023-05-08T09:20:40;101563.01;;;11.78;100.00
33265;BME280;31404;53.974;-1.086;2023-05-08T09:25:41;101558.12;;;12.39;100.00
33265;BME280;31404;53.974;-1.086;2023-05-08T09:35:40;101558.12;;;12.61;100.00
33265;BME280;31404;53.974;-1.086;2023-05-08T09:40:39;101552.27;;;12.05;100.00
33265;BME280;31404;53.974;-1.086;2023-05-08T09:45:40;101538.77;;;12.18;100.00
33265;BME280;31404;53.974;-1.086;2023-05-08T09:50:39;101542.89;;;12.35;100.00
33265;BME280;31404;53.974;-1.086;2023-05-08T10:00:39;101542.45;;;13.12;100.00
33265;BME280;31404;53.974;-1.086;2023-05-08T10:05:38;101534.59;;;12.17;100.00
33265;BME280;31404;53.974;-1.086;2023-05-08T10:10:39;101541.67;;;11.64;100.00
33265;BME280;31404;53.974;-1.086;2023-05-08T10:15:42;101521.45;;;11.72;100.00
33265;BME280;31404;53.974;-1.086;2023-05-08T10:20:41;101527.78;;;10.08;100.00
33265;BME280;31404;53.974;-1.086;2023-05-08T10:35:38;101522.16;;;10.36;100.00
33265;BME280;31404;53.974;-1.086;2023-05-08T10:40:40;101515.41;;;9.96;100.00
33265;BME280;31404;53.974;-1.086;2023-05-08T10:45:37;101522.54;;;9.52;100.00
33265;BME280;31404;53.974;-1.086;2023-05-08T10:55:40;101519.63;;;9.88;100.00
33265;BME280;31404;53.974;-1.086;2023-05-08T11:10:38;101507.22;;;10.16;100.00
33265;BME280;31404;53.974;-1.086;2023-05-08T11:15:39;101506.04;;;10.49;100.00
33265;BME280;31404;53.974;-1.086;2023-05-08T11:20:41;101506.42;;;10.13;100.00
33265;BME280;31404;53.974;-1.086;2023-05-08T11:25:42;101507.31;;;9.91;100.00
33265;BME280;31404;53.974;-1.086;2023-05-08T11:30:41;101497.90;;;10.28;100.00
33265;BME280;31404;53.974;-1.086;2023-05-08T11:35:42;101489.41;;;10.72;100.00
33265;BME280;31404;53.974;-1.086;2023-05-08T11:45:38;101497.39;;;10.29;100.00
33265;BME280;31404;53.974;-1.086;2023-05-08T11:50:38;101495.06;;;11.26;100.00
33265;BME280;31404;53.974;-1.086;2023-05-08T11:55:41;101491.74;;;10.75;100.00
33265;BME280;31404;53.974;-1.086;2023-05-08T12:00:41;101487.11;;;11.01;100.00
33265;BME280;31404;53.974;-1.086;2023-05-08T12:05:41;101485.05;;;10.28;100.00
33265;BME280;31404;53.974;-1.086;2023-05-08T12:15:40;101490.10;;;9.80;100.00
33265;BME280;31404;53.974;-1.086;2023-05-08T12:20:40;101484.90;;;11.30;100.00
33265;BME280;31404;53.974;-1.086;2023-05-08T12:25:41;101484.09;;;12.59;100.00
33265;BME280;31404;53.974;-1.086;2023-05-08T12:30:40;101477.50;;;11.73;100.00
33265;BME280;31404;53.974;-1.086;2023-05-08T12:35:40;101479.50;;;11.72;100.00
33265;BME280;31404;53.974;-1.086;2023-05-08T12:40:41;101480.96;;;11.91;100.00
33265;BME280;31404;53.974;-1.086;2023-05-08T12:45:41;101476.52;;;11.76;100.00
33265;BME280;31404;53.974;-1.086;2023-05-08T12:50:42;101491.13;;;10.85;100.00
33265;BME280;31404;53.974;-1.086;2023-05-08T13:00:39;101480.98;;;11.30;100.00
33265;BME280;31404;53.974;-1.086;2023-05-08T13:05:41;101475.80;;;10.77;100.00
33265;BME280;31404;53.974;-1.086;2023-05-08T13:15:41;101466.37;;;11.35;100.00
33265;BME280;31404;53.974;-1.086;2023-05-08T13:20:40;101455.78;;;11.20;100.00
33265;BME280;31404;53.974;-1.086;2023-05-08T13:25:41;101456.81;;;11.72;100.00
33265;BME280;31404;53.974;-1.086;2023-05-08T13:30:35;101466.09;;;10.53;100.00
33265;BME280;31404;53.974;-1.086;2023-05-08T13:35:40;101477.61;;;10.93;100.00
33265;BME280;31404;53.974;-1.086;2023-05-08T13:40:37;101485.89;;;10.86;100.00
33265;BME280;31404;53.974;-1.086;2023-05-08T13:45:40;101483.78;;;11.87;100.00
33265;BME280;31404;53.974;-1.086;2023-05-08T13:50:39;101486.20;;;11.32;100.00
33265;BME280;31404;53.974;-1.086;2023-05-08T13:55:40;101483.13;;;12.05;100.00
33265;BME280;31404;53.974;-1.086;2023-05-08T14:00:40;101461.79;;;11.74;100.00
33265;BME280;31404;53.974;-1.086;2023-05-08T14:05:40;101435.62;;;11.57;100.00
33265;BME280;31404;53.974;-1.086;2023-05-08T14:10:40;101425.02;;;11.23;100.00
33265;BME280;31404;53.974;-1.086;2023-05-08T14:15:37;101414.45;;;11.26;100.00
33265;BME280;31404;53.974;-1.086;2023-05-08T14:20:38;101422.21;;;11.92;100.00
33265;BME280;31404;53.974;-1.086;2023-05-08T14:25:39;101403.42;;;11.80;100.00
33265;BME280;31404;53.974;-1.086;2023-05-08T14:30:37;101405.87;;;11.82;100.00
33265;BME280;31404;53.974;-1.086;2023-05-08T14:35:38;101402.48;;;10.91;100.00
33265;BME280;31404;53.974;-1.086;2023-05-08T14:40:39;101411.17;;;10.89;100.00
33265;BME280;31404;53.974;-1.086;2023-05-08T14:45:38;101403.25;;;12.16;100.00
33265;BME280;31404;53.974;-1.086;2023-05-08T14:55:40;101398.48;;;10.55;100.00
33265;BME280;31404;53.974;-1.086;2023-05-08T15:00:40;101381.61;;;11.87;100.00
33265;BME280;31404;53.974;-1.086;2023-05-08T15:05:40;101397.40;;;12.37;100.00
33265;BME280;31404;53.974;-1.086;2023-05-08T15:10:40;101395.40;;;12.02;100.00
33265;BME280;31404;53.974;-1.086;2023-05-08T15:15:40;101391.81;;;12.09;100.00
33265;BME280;31404;53.974;-1.086;2023-05-08T15:20:40;101376.27;;;11.84;100.00
33265;BME280;31404;53.974;-1.086;2023-05-08T15:25:39;101372.19;;;11.59;100.00
33265;BME280;31404;53.974;-1.086;2023-05-08T15:30:40;101363.50;;;12.52;100.00
33265;BME280;31404;53.974;-1.086;2023-05-08T15:35:40;101353.55;;;10.87;100.00
33265;BME280;31404;53.974;-1.086;2023-05-08T15:40:40;101352.90;;;12.38;100.00
33265;BME280;31404;53.974;-1.086;2023-05-08T15:45:39;101342.40;;;11.18;100.00
33265;BME280;31404;53.974;-1.086;2023-05-08T15:50:40;101354.13;;;12.06;100.00
33265;BME280;31404;53.974;-1.086;2023-05-08T15:55:40;101355.39;;;13.77;100.00
33265;BME280;31404;53.974;-1.086;2023-05-08T16:00:35;101357.29;;;12.72;100.00
33265;BME280;31404;53.974;-1.086;2023-05-08T16:05:40;101357.36;;;12.74;100.00
33265;BME280;31404;53.974;-1.086;2023-05-08T16:10:41;101359.22;;;12.45;100.00
33265;BME280;31404;53.974;-1.086;2023-05-08T16:15:40;101342.59;;;13.18;100.00
33265;BME280;31404;53.974;-1.086;2023-05-08T16:20:39;101347.13;;;13.04;100.00
33265;BME280;31404;53.974;-1.086;2023-05-08T16:25:40;101347.59;;;13.24;100.00
33265;BME280;31404;53.974;-1.086;2023-05-08T16:30:40;101345.29;;;12.77;100.00
33265;BME280;31404;53.974;-1.086;2023-05-08T16:35:39;101341.32;;;12.12;100.00
33265;BME280;31404;53.974;-1.086;2023-05-08T16:40:40;101330.24;;;12.52;100.00
33265;BME280;31404;53.974;-1.086;2023-05-08T16:45:40;101335.22;;;13.11;100.00
33265;BME280;31404;53.974;-1.086;2023-05-08T16:50:40;101329.91;;;13.15;100.00
33265;BME280;31404;53.974;-1.086;2023-05-08T16:55:40;101335.63;;;13.42;100.00
33265;BME280;31404;53.974;-1.086;2023-05-08T17:00:39;101326.12;;;15.35;100.00
33265;BME280;31404;53.974;-1.086;2023-05-08T17:05:40;101318.21;;;14.90;100.00
33265;BME280;31404;53.974;-1.086;2023-05-08T17:10:40;101318.36;;;13.86;100.00
33265;BME280;31404;53.974;-1.086;2023-05-08T17:15:39;101311.48;;;15.09;100.00
33265;BME280;31404;53.974;-1.086;2023-05-08T17:20:40;101312.20;;;13.06;100.00
33265;BME280;31404;53.974;-1.086;2023-05-08T17:25:40;101305.75;;;12.78;100.00
33265;BME280;31404;53.974;-1.086;2023-05-08T17:30:40;101307.28;;;12.56;100.00
33265;BME280;31404;53.974;-1.086;2023-05-08T17:35:40;101297.41;;;12.97;100.00
33265;BME280;31404;53.974;-1.086;2023-05-08T17:40:40;101306.15;;;12.09;100.00
33265;BME280;31404;53.974;-1.086;2023-05-08T17:50:39;101300.67;;;12.12;100.00
33265;BME280;31404;53.974;-1.086;2023-05-08T17:55:40;101300.01;;;12.73;100.00
33265;BME280;31404;53.974;-1.086;2023-05-08T18:00:40;101300.65;;;12.38;100.00
33265;BME280;31404;53.974;-1.086;2023-05-08T18:05:40;101294.14;;;13.43;100.00
33265;BME280;31404;53.974;-1.086;2023-05-08T18:10:40;101295.86;;;12.00;100.00
33265;BME280;31404;53.974;-1.086;2023-05-08T18:15:41;101297.58;;;11.70;100.00
33265;BME280;31404;53.974;-1.086;2023-05-08T18:20:40;101291.40;;;11.76;100.00
33265;BME280;31404;53.974;-1.086;2023-05-08T18:25:40;101287.59;;;12.42;100.00
33265;BME280;31404;53.974;-1.086;2023-05-08T18:30:40;101282.86;;;11.88;100.00
33265;BME280;31404;53.974;-1.086;2023-05-08T18:35:45;101271.42;;;12.27;100.00
33265;BME280;31404;53.974;-1.086;2023-05-08T18:40:39;101273.56;;;12.31;100.00
33265;BME280;31404;53.974;-1.086;2023-05-08T18:45:40;101275.05;;;11.81;100.00
33265;BME280;31404;53.974;-1.086;2023-05-08T18:50:40;101267.94;;;11.91;100.00
33265;BME280;31404;53.974;-1.086;2023-05-08T18:55:40;101265.15;;;12.10;100.00
33265;BME280;31404;53.974;-1.086;2023-05-08T19:00:40;101264.52;;;11.33;100.00
33265;BME280;31404;53.974;-1.086;2023-05-08T19:05:40;101257.19;;;12.99;100.00
33265;BME280;31404;53.974;-1.086;2023-05-08T19:10:39;101249.95;;;12.29;100.00
33265;BME280;31404;53.974;-1.086;2023-05-08T19:15:38;101250.49;;;12.00;100.00
33265;BME280;31404;53.974;-1.086;2023-05-08T19:20:40;101244.88;;;12.62;100.00
33265;BME280;31404;53.974;-1.086;2023-05-08T19:25:40;101249.29;;;12.34;100.00
33265;BME280;31404;53.974;-1.086;2023-05-08T19:30:40;101252.68;;;11.85;100.00
33265;BME280;31404;53.974;-1.086;2023-05-08T19:35:40;101251.21;;;12.30;100.00
33265;BME280;31404;53.974;-1.086;2023-05-08T19:40:38;101246.92;;;13.28;100.00
33265;BME280;31404;53.974;-1.086;2023-05-08T19:45:40;101250.97;;;12.77;100.00
33265;BME280;31404;53.974;-1.086;2023-05-08T19:50:40;101246.51;;;13.39;100.00
33265;BME280;31404;53.974;-1.086;2023-05-08T19:55:40;101240.27;;;13.17;100.00
33265;BME280;31404;53.974;-1.086;2023-05-08T20:00:40;101239.79;;;12.38;100.00
33265;BME280;31404;53.974;-1.086;2023-05-08T20:05:40;101244.86;;;13.25;100.00
33265;BME280;31404;53.974;-1.086;2023-05-08T20:10:41;101243.38;;;12.56;100.00
33265;BME280;31404;53.974;-1.086;2023-05-08T20:15:40;101247.45;;;13.03;100.00
33265;BME280;31404;53.974;-1.086;2023-05-08T20:20:40;101246.00;;;12.53;100.00
33265;BME280;31404;53.974;-1.086;2023-05-08T20:25:37;101243.52;;;13.15;100.00
33265;BME280;31404;53.974;-1.086;2023-05-08T20:30:40;101239.40;;;13.45;100.00
33265;BME280;31404;53.974;-1.086;2023-05-08T20:35:40;101234.19;;;13.66;100.00
33265;BME280;31404;53.974;-1.086;2023-05-08T20:40:41;101228.79;;;13.29;100.00
33265;BME280;31404;53.974;-1.086;2023-05-08T20:45:41;101228.70;;;12.46;100.00
33265;BME280;31404;53.974;-1.086;2023-05-08T20:50:37;101227.68;;;12.89;100.00
33265;BME280;31404;53.974;-1.086;2023-05-08T20:55:38;101227.69;;;12.68;100.00
33265;BME280;31404;53.974;-1.086;2023-05-08T21:00:39;101233.00;;;12.89;100.00
33265;BME280;31404;53.974;-1.086;2023-05-08T21:05:40;101235.11;;;13.60;100.00
33265;BME280;31404;53.974;-1.086;2023-05-08T21:10:39;101231.20;;;12.64;100.00
33265;BME280;31404;53.974;-1.086;2023-05-08T21:15:40;101226.07;;;13.36;100.00
33265;BME280;31404;53.974;-1.086;2023-05-08T21:20:40;101216.97;;;12.87;100.00
33265;BME280;31404;53.974;-1.086;2023-05-08T21:25:35;101206.56;;;14.74;100.00
33265;BME280;31404;53.974;-1.086;2023-05-08T21:30:36;101205.92;;;13.23;100.00
33265;BME280;31404;53.974;-1.086;2023-05-08T21:35:38;101198.15;;;13.73;100.00
33265;BME280;31404;53.974;-1.086;2023-05-08T21:40:40;101195.87;;;13.81;100.00
33265;BME280;31404;53.974;-1.086;2023-05-08T21:45:41;101192.37;;;14.17;100.00
33265;BME280;31404;53.974;-1.086;2023-05-08T21:50:39;101189.09;;;14.06;100.00
33265;BME280;31404;53.974;-1.086;2023-05-08T21:55:40;101189.03;;;14.43;100.00
33265;BME280;31404;53.974;-1.086;2023-05-08T22:00:41;101195.17;;;13.68;100.00
33265;BME280;31404;53.974;-1.086;2023-05-08T22:05:40;101187.00;;;14.00;100.00
33265;BME280;31404;53.974;-1.086;2023-05-08T22:10:40;101183.40;;;14.79;100.00
33265;BME280;31404;53.974;-1.086;2023-05-08T22:15:41;101179.96;;;15.61;100.00
33265;BME280;31404;53.974;-1.086;2023-05-08T22:20:35;101176.08;;;13.96;100.00
33265;BME280;31404;53.974;-1.086;2023-05-08T22:25:40;101172.42;;;14.47;100.00
33265;BME280;31404;53.974;-1.086;2023-05-08T22:30:40;101177.90;;;14.98;100.00
33265;BME280;31404;53.974;-1.086;2023-05-08T22:35:40;101170.78;;;14.35;100.00
33265;BME280;31404;53.974;-1.086;2023-05-08T22:40:40;101170.94;;;13.40;100.00
33265;BME280;31404;53.974;-1.086;2023-05-08T22:45:41;101162.84;;;14.50;100.00
33265;BME280;31404;53.974;-1.086;2023-05-08T22:50:40;101156.40;;;14.12;100.00
33265;BME280;31404;53.974;-1.086;2023-05-08T22:55:40;101167.03;;;13.06;100.00
33265;BME280;31404;53.974;-1.086;2023-05-08T23:00:53;101156.52;;;14.29;100.00
33265;BME280;31404;53.974;-1.086;2023-05-08T23:05:40;101156.77;;;14.92;100.00
33265;BME280;31404;53.974;-1.086;2023-05-08T23:10:39;101150.66;;;14.44;100.00
33265;BME280;31404;53.974;-1.086;2023-05-08T23:15:40;101152.62;;;15.02;100.00
33265;BME280;31404;53.974;-1.086;2023-05-08T23:20:40;101149.58;;;15.32;100.00
33265;BME280;31404;53.974;-1.086;2023-05-08T23:25:40;101146.01;;;14.27;100.00
33265;BME280;31404;53.974;-1.086;2023-05-08T23:30:42;101143.25;;;14.02;100.00
33265;BME280;31404;53.974;-1.086;2023-05-08T23:35:40;101139.25;;;14.31;100.00
33265;BME280;31404;53.974;-1.086;2023-05-08T23:40:42;101141.31;;;14.46;100.00
33265;BME280;31404;53.974;-1.086;2023-05-08T23:45:40;101145.59;;;14.13;100.00
33265;BME280;31404;53.974;-1.086;2023-05-08T23:50:34;101142.37;;;15.17;100.00
33265;BME280;31404;53.974;-1.086;2023-05-08T23:55:40;101132.46;;;15.59;100.00
